.
WxDataArchive / Data Records for 2006-12-15
2006-12-14 December 2006 2006-12-16

Data Records for Friday, 15 December 2006

Time	Temp	Chill	HIndex	Humid	Dewpt	 Wind 	HiWind	WindDir	Rain 	Barom 
-----	----	-----	------	-----	-----	------	------	-------	-----	----- 
00:00	46.7	46.7	46.7	76	39.5	3	7	248	0.00	29.636 
00:05	46.8	46.8	46.8	75	39.3	3	9	248	0.00	29.636 
00:10	47.0	47.0	47.0	74	39.1	3	12	248	0.00	29.636 
00:15	47.1	45.5	47.1	73	38.9	4	11	248	0.00	29.635 
00:20	47.1	44.8	47.1	73	38.9	5	11	248	0.00	29.635 
00:25	47.3	45.8	47.3	73	39.1	4	11	270	0.00	29.635 
00:30	47.1	47.1	47.1	73	38.9	3	9	248	0.00	29.634 
00:35	47.3	45.0	47.3	73	39.1	5	12	270	0.00	29.634 
00:40	47.3	45.8	47.3	72	38.7	4	11	248	0.00	29.634 
00:45	47.4	45.2	47.4	71	38.5	5	13	248	0.00	29.629 
00:50	47.3	47.3	47.3	71	38.4	3	6	248	0.00	29.629 
00:55	47.3	45.0	47.3	71	38.4	5	11	248	0.00	29.629 
01:00	47.3	47.3	47.3	71	38.4	3	9	248	0.00	29.624 
01:05	47.1	45.5	47.1	71	38.2	4	9	248	0.00	29.624 
01:10	47.1	47.1	47.1	71	38.2	3	7	248	0.00	29.624 
01:15	47.1	44.8	47.1	71	38.2	5	11	270	0.00	29.623 
01:20	47.1	44.8	47.1	71	38.2	5	12	270	0.00	29.623 
01:25	47.1	44.8	47.1	71	38.2	5	10	270	0.00	29.623 
01:30	47.1	45.5	47.1	71	38.2	4	9	248	0.00	29.625 
01:35	47.1	45.5	47.1	70	37.8	4	9	248	0.00	29.625 
01:40	47.1	45.5	47.1	70	37.8	4	10	270	0.00	29.625 
01:45	47.3	45.0	47.3	70	38.0	5	11	248	0.00	29.631 
01:50	47.1	45.5	47.1	70	37.8	4	9	248	0.00	29.631 
01:55	47.1	44.8	47.1	69	37.5	5	14	248	0.00	29.631 
02:00	47.1	44.8	47.1	69	37.5	5	13	270	0.00	29.646 
02:05	47.3	44.5	47.3	68	37.3	6	15	270	0.00	29.646 
02:10	47.1	47.1	47.1	68	37.1	3	11	270	0.00	29.646 
02:15	47.0	47.0	47.0	69	37.4	3	7	270	0.00	29.648 
02:20	46.8	45.2	46.8	70	37.5	4	7	270	0.00	29.648 
02:25	46.7	44.3	46.7	69	37.1	5	10	248	0.00	29.648 
02:30	46.7	45.1	46.7	68	36.7	4	11	248	0.00	29.627 
02:35	46.7	45.1	46.7	65	35.6	4	10	248	0.00	29.627 
02:40	47.3	45.8	47.3	62	34.9	4	9	270	0.00	29.627 
02:45	47.7	46.2	47.7	60	34.5	4	9	270	0.00	29.624 
02:50	48.0	46.6	48.0	59	34.4	4	9	248	0.00	29.624 
02:55	48.2	46.8	48.2	59	34.6	4	9	248	0.00	29.624 
03:00	48.2	46.8	48.2	60	35.0	4	12	270	0.00	29.634 
03:05	48.0	45.9	48.0	61	35.2	5	12	248	0.00	29.634 
03:10	47.9	45.8	47.9	61	35.1	5	12	270	0.00	29.634 
03:15	47.7	46.2	47.7	62	35.3	4	9	248	0.00	29.633 
03:20	47.7	46.2	47.7	61	34.9	4	10	248	0.00	29.633 
03:25	47.6	46.1	47.6	61	34.8	4	7	248	0.00	29.633 
03:30	47.7	45.5	47.7	60	34.5	5	12	248	0.00	29.632 
03:35	47.6	45.4	47.6	60	34.4	5	17	248	0.00	29.632 
03:40	47.6	45.4	47.6	60	34.4	5	11	248	0.00	29.632 
03:45	47.4	45.9	47.4	60	34.2	4	10	270	0.00	29.631 
03:50	47.4	45.2	47.4	60	34.2	5	10	248	0.00	29.631 
03:55	47.4	45.2	47.4	59	33.8	5	12	248	0.00	29.631 
04:00	47.4	45.2	47.4	58	33.4	5	12	248	0.00	29.631 
04:05	47.3	45.8	47.3	58	33.3	4	7	248	0.00	29.631 
04:10	47.3	45.0	47.3	57	32.8	5	11	248	0.00	29.631 
04:15	47.3	45.0	47.3	56	32.4	5	11	270	0.00	29.627 
04:20	47.3	45.0	47.3	56	32.4	5	12	270	0.00	29.627 
04:25	47.1	45.5	47.1	55	31.8	4	10	248	0.00	29.627 
04:30	47.0	45.4	47.0	55	31.7	4	9	248	0.00	29.621 
04:35	47.0	44.7	47.0	55	31.7	5	12	270	0.00	29.621 
04:40	46.8	45.2	46.8	55	31.5	4	10	248	0.00	29.621 
04:45	46.7	45.1	46.7	55	31.4	4	13	248	0.00	29.621 
04:50	46.5	44.8	46.5	55	31.2	4	9	248	0.00	29.621 
04:55	46.5	44.8	46.5	55	31.2	4	9	270	0.00	29.621 
05:00	46.5	43.5	46.5	54	30.8	6	14	248	0.00	29.622 
05:05	46.5	44.1	46.5	54	30.8	5	12	270	0.00	29.622 
05:10	46.5	44.1	46.5	53	30.3	5	12	270	0.00	29.622 
05:15	46.4	44.7	46.4	54	30.7	4	11	248	0.00	29.628 
05:20	46.1	43.6	46.1	54	30.4	5	11	270	0.00	29.628 
05:25	46.1	44.4	46.1	55	30.8	4	12	270	0.00	29.628 
05:30	45.8	44.0	45.8	55	30.6	4	10	270	0.00	29.632 
05:35	45.7	43.9	45.7	55	30.5	4	14	248	0.00	29.632 
05:40	45.8	42.7	45.8	54	30.1	6	14	270	0.00	29.632 
05:45	45.7	43.9	45.7	55	30.5	4	11	270	0.00	29.630 
05:50	45.5	43.7	45.5	55	30.3	4	11	270	0.00	29.630 
05:55	45.5	42.9	45.5	55	30.3	5	13	270	0.00	29.630 
06:00	45.4	42.8	45.4	55	30.2	5	12	270	0.00	29.628 
06:05	45.2	43.3	45.2	56	30.4	4	13	270	0.00	29.628 
06:10	45.2	42.0	45.2	56	30.4	6	13	248	0.00	29.628 
06:15	45.1	43.2	45.1	57	30.8	4	12	248	0.00	29.626 
06:20	44.8	42.9	44.8	58	30.9	4	10	248	0.00	29.626 
06:25	44.6	42.6	44.6	58	30.7	4	10	248	0.00	29.626 
06:30	44.6	41.9	44.6	58	30.7	5	12	270	0.00	29.627 
06:35	44.5	42.5	44.5	59	31.1	4	9	270	0.00	29.627 
06:40	44.3	41.5	44.3	59	30.9	5	12	270	0.00	29.627 
06:45	44.3	41.5	44.3	59	30.9	5	10	270	0.00	29.636 
06:50	44.2	44.2	44.2	60	31.2	3	7	248	0.00	29.636 
06:55	44.1	41.3	44.1	60	31.1	5	16	270	0.00	29.636 
07:00	44.1	41.3	44.1	60	31.1	5	12	270	0.00	29.638 
07:05	43.8	40.9	43.8	60	30.8	5	15	270	0.00	29.638 
07:10	43.6	40.7	43.6	61	31.0	5	14	270	0.00	29.638 
07:15	43.3	41.1	43.3	61	30.8	4	11	270	0.00	29.644 
07:20	43.2	41.0	43.2	62	31.1	4	10	270	0.00	29.644 
07:25	42.9	42.9	42.9	63	31.2	2	6	270	0.00	29.644 
07:30	42.8	40.6	42.8	63	31.1	4	10	270	0.00	29.648 
07:35	42.6	39.5	42.6	63	30.9	5	11	270	0.00	29.648 
07:40	42.6	40.3	42.6	63	30.9	4	12	270	0.00	29.648 
07:45	42.3	42.3	42.3	64	31.0	3	6	270	0.00	29.653 
07:50	42.1	42.1	42.1	65	31.2	3	12	270	0.00	29.653 
07:55	42.1	39.7	42.1	65	31.2	4	10	270	0.00	29.653 
08:00	41.9	39.5	41.9	65	31.0	4	10	270	0.00	29.658 
08:05	41.8	39.4	41.8	65	30.9	4	9	270	0.00	29.658 
08:10	41.8	39.4	41.8	65	30.9	4	11	248	0.00	29.658 
08:15	41.6	39.2	41.6	65	30.7	4	13	270	0.00	29.661 
08:20	41.6	39.2	41.6	65	30.7	4	13	270	0.00	29.661 
08:25	41.5	41.5	41.5	66	31.0	3	7	248	0.00	29.661 
08:30	41.3	38.8	41.3	65	30.4	4	11	270	0.00	29.672 
08:35	41.3	38.8	41.3	65	30.4	4	12	270	0.00	29.672 
08:40	41.2	38.7	41.2	65	30.3	4	9	270	0.00	29.672 
08:45	41.2	41.2	41.2	66	30.7	3	9	248	0.00	29.677 
08:50	41.1	41.1	41.1	66	30.6	3	10	248	0.00	29.677 
08:55	41.2	41.2	41.2	66	30.7	2	10	270	0.00	29.677 
09:00	41.2	41.2	41.2	66	30.7	3	9	270	0.00	29.690 
09:05	41.2	41.2	41.2	66	30.7	3	10	248	0.00	29.690 
09:10	41.3	41.3	41.3	66	30.8	3	9	270	0.00	29.690 
09:15	41.3	38.8	41.3	65	30.4	4	12	270	0.00	29.694 
09:20	41.5	39.1	41.5	65	30.6	4	13	270	0.00	29.694 
09:25	41.5	39.1	41.5	65	30.6	4	10	270	0.00	29.694 
09:30	41.5	41.5	41.5	65	30.6	3	6	270	0.00	29.703 
09:35	41.6	41.6	41.6	65	30.7	3	10	270	0.00	29.703 
09:40	41.8	41.8	41.8	65	30.9	3	10	270	0.00	29.703 
09:45	41.8	39.4	41.8	66	31.3	4	12	270	0.00	29.709 
09:50	41.8	41.8	41.8	65	30.9	3	9	270	0.00	29.709 
09:55	41.8	39.4	41.8	65	30.9	4	11	270	0.00	29.709 
10:00	41.9	39.5	41.9	65	31.0	4	9	270	0.00	29.719 
10:05	42.1	42.1	42.1	65	31.2	3	7	292	0.00	29.719 
10:10	42.3	42.3	42.3	65	31.4	3	7	270	0.00	29.719 
10:15	42.3	42.3	42.3	65	31.4	3	10	270	0.00	29.724 
10:20	42.3	42.3	42.3	66	31.8	2	5	248	0.00	29.724 
10:25	42.5	42.5	42.5	65	31.6	3	7	270	0.00	29.724 
10:30	42.5	40.2	42.5	65	31.6	4	9	270	0.00	29.728 
10:35	42.5	42.5	42.5	65	31.6	3	6	315	0.00	29.728 
10:40	42.8	40.6	42.8	65	31.9	4	12	270	0.00	29.728 
10:45	42.8	42.8	42.8	64	31.5	3	7	270	0.00	29.736 
10:50	42.8	42.8	42.8	64	31.5	3	7	270	0.00	29.736 
10:55	43.1	43.1	43.1	64	31.8	3	6	292	0.00	29.736 
11:00	43.5	43.5	43.5	62	31.4	3	9	248	0.00	29.737 
11:05	43.6	41.5	43.6	62	31.5	4	9	270	0.00	29.737 
11:10	43.8	43.8	43.8	64	32.4	3	6	270	0.00	29.737 
11:15	43.6	43.6	43.6	62	31.5	3	7	270	0.00	29.746 
11:20	43.3	43.3	43.3	62	31.2	3	12	270	0.00	29.746 
11:25	42.9	42.9	42.9	64	31.6	3	9	270	0.00	29.746 
11:30	42.8	42.8	42.8	65	31.9	3	10	270	0.00	29.753 
11:35	42.6	42.6	42.6	65	31.7	2	5	270	0.00	29.753 
11:40	42.6	42.6	42.6	65	31.7	3	7	270	0.00	29.753 
11:45	42.6	42.6	42.6	65	31.7	2	8	248	0.00	29.753 
11:50	42.5	40.2	42.5	64	31.2	4	10	270	0.00	29.753 
11:55	42.5	42.5	42.5	65	31.6	3	6	270	0.00	29.753 
12:00	42.5	42.5	42.5	65	31.6	3	9	270	0.00	29.755 
12:05	42.3	42.3	42.3	65	31.4	3	6	270	0.00	29.755 
12:10	42.3	42.3	42.3	65	31.4	3	9	270	0.00	29.755 
12:15	42.2	42.2	42.2	66	31.7	3	6	270	0.00	29.762 
12:20	42.2	42.2	42.2	64	30.9	3	9	270	0.00	29.762 
12:25	42.2	42.2	42.2	63	30.5	2	6	270	0.00	29.762 
12:30	42.2	42.2	42.2	64	30.9	2	4	270	0.00	29.768 
12:35	42.1	39.7	42.1	63	30.4	4	7	270	0.00	29.768 
12:40	42.1	42.1	42.1	64	30.8	3	7	270	0.00	29.768 
12:45	42.1	42.1	42.1	65	31.2	3	9	270	0.00	29.772 
12:50	42.1	42.1	42.1	64	30.8	2	5	270	0.00	29.772 
12:55	42.2	42.2	42.2	64	30.9	2	5	270	0.00	29.772 
13:00	42.2	42.2	42.2	63	30.5	2	4	270	0.00	29.770 
13:05	42.3	42.3	42.3	62	30.2	3	7	270	0.00	29.770 
13:10	42.5	42.5	42.5	63	30.8	3	6	270	0.00	29.770 
13:15	42.5	42.5	42.5	63	30.8	3	9	270	0.00	29.771 
13:20	42.6	42.6	42.6	63	30.9	2	4	270	0.00	29.771 
13:25	42.8	42.8	42.8	62	30.7	3	5	270	0.00	29.771 
13:30	43.1	43.1	43.1	63	31.4	2	5	270	0.00	29.772 
13:35	43.1	43.1	43.1	62	31.0	3	10	270	0.00	29.772 
13:40	42.8	40.6	42.8	61	30.3	4	9	270	0.00	29.772 
13:45	42.8	42.8	42.8	62	30.7	3	10	270	0.00	29.784 
13:50	42.8	42.8	42.8	62	30.7	3	7	270	0.00	29.784 
13:55	42.9	42.9	42.9	60	30.0	3	7	270	0.00	29.784 
14:00	42.8	42.8	42.8	60	29.9	3	7	270	0.00	29.797 
14:05	42.6	42.6	42.6	60	29.7	2	5	315	0.00	29.797 
14:10	42.6	42.6	42.6	61	30.1	3	9	270	0.00	29.797 
14:15	42.6	42.6	42.6	62	30.5	3	7	270	0.00	29.801 
14:20	42.6	42.6	42.6	62	30.5	3	6	270	0.00	29.801 
14:25	42.8	42.8	42.8	62	30.7	2	4	270	0.00	29.801 
14:30	42.8	42.8	42.8	61	30.3	3	11	270	0.00	29.807 
14:35	42.8	42.8	42.8	61	30.3	2	4	292	0.00	29.807 
14:40	42.8	42.8	42.8	60	29.9	3	6	270	0.00	29.807 
14:45	42.6	42.6	42.6	60	29.7	3	6	292	0.00	29.817 
14:50	42.6	42.6	42.6	60	29.7	2	6	315	0.00	29.817 
14:55	42.8	42.8	42.8	59	29.5	3	5	270	0.00	29.817 
15:00	42.8	42.8	42.8	60	29.9	2	5	270	0.00	29.819 
15:05	42.8	42.8	42.8	60	29.9	3	7	270	0.00	29.819 
15:10	42.8	42.8	42.8	60	29.9	2	6	270	0.00	29.819 
15:15	42.8	42.8	42.8	60	29.9	3	10	270	0.00	29.827 
15:20	42.8	42.8	42.8	60	29.9	2	5	248	0.00	29.827 
15:25	42.9	42.9	42.9	59	29.6	2	7	270	0.00	29.827 
15:30	42.8	42.8	42.8	59	29.5	2	5	315	0.00	29.832 
15:35	42.8	42.8	42.8	59	29.5	2	9	292	0.00	29.832 
15:40	42.8	42.8	42.8	60	29.9	2	5	270	0.00	29.832 
15:45	42.6	42.6	42.6	60	29.7	2	4	270	0.00	29.846 
15:50	42.5	42.5	42.5	59	29.2	2	5	315	0.00	29.846 
15:55	42.5	42.5	42.5	59	29.2	2	6	270	0.00	29.846 
16:00	42.3	42.3	42.3	59	29.0	2	5	270	0.00	29.854 
16:05	42.3	42.3	42.3	59	29.0	2	6	270	0.00	29.854 
16:10	42.2	42.2	42.2	60	29.3	2	7	270	0.00	29.854 
16:15	42.2	42.2	42.2	59	28.9	2	7	270	0.00	29.865 
16:20	42.2	42.2	42.2	59	28.9	2	4	270	0.00	29.865 
16:25	42.1	42.1	42.1	58	28.4	3	6	270	0.00	29.865 
16:30	42.1	42.1	42.1	59	28.8	3	5	270	0.00	29.869 
16:35	41.9	41.9	41.9	60	29.0	3	7	270	0.00	29.869 
16:40	41.9	41.9	41.9	61	29.4	2	5	270	0.00	29.869 
16:45	41.8	41.8	41.8	61	29.4	1	6	338	0.00	29.877 
16:50	41.8	41.8	41.8	62	29.7	1	2	315	0.00	29.877 
16:55	41.6	41.6	41.6	62	29.6	0	3	270	0.00	29.877 
17:00	41.5	41.5	41.5	63	29.9	1	6	270	0.00	29.885 
17:05	41.5	41.5	41.5	63	29.9	2	5	270	0.00	29.885 
17:10	41.5	41.5	41.5	63	29.9	1	2	292	0.00	29.885 
17:15	41.3	41.3	41.3	64	30.1	0	2	292	0.00	29.898 
17:20	41.3	41.3	41.3	64	30.1	0	2	292	0.00	29.898 
17:25	41.2	41.2	41.2	65	30.3	0	2	292	0.00	29.898 
17:30	41.2	41.2	41.2	66	30.7	1	3	338	0.00	29.903 
17:35	41.1	41.1	41.1	66	30.6	1	3	315	0.00	29.903 
17:40	40.9	40.9	40.9	66	30.4	1	4	248	0.00	29.903 
17:45	40.8	40.8	40.8	66	30.3	1	4	338	0.00	29.913 
17:50	40.6	40.6	40.6	65	29.8	1	6	292	0.00	29.913 
17:55	40.3	40.3	40.3	65	29.5	0	3	338	0.00	29.913 
18:00	40.1	40.1	40.1	65	29.3	1	2	338	0.00	29.923 
18:05	39.9	39.9	39.9	66	29.5	0	2	338	0.00	29.923 
18:10	39.6	39.6	39.6	66	29.2	0	2	315	0.00	29.923 
18:15	39.6	39.6	39.6	66	29.2	1	3	248	0.00	29.937 
18:20	39.8	39.8	39.8	65	29.0	1	4	248	0.00	29.937 
18:25	39.9	39.9	39.9	65	29.1	1	3	270	0.00	29.937 
18:30	39.9	39.9	39.9	65	29.1	1	2	270	0.00	29.948 
18:35	39.8	39.8	39.8	66	29.4	1	2	248	0.00	29.948 
18:40	39.8	39.8	39.8	66	29.4	0	2	248	0.00	29.948 
18:45	39.8	39.8	39.8	65	29.0	0	2	248	0.00	29.960 
18:50	39.6	39.6	39.6	65	28.8	1	3	0	0.00	29.960 
18:55	39.6	39.6	39.6	65	28.8	1	2	338	0.00	29.960 
19:00	39.6	39.6	39.6	65	28.8	0	1	292	0.00	29.963 
19:05	39.5	39.5	39.5	66	29.1	0	2	292	0.00	29.963 
19:10	39.5	39.5	39.5	66	29.1	0	2	270	0.00	29.963 
19:15	39.3	39.3	39.3	66	28.9	1	3	270	0.00	29.969 
19:20	39.2	39.2	39.2	66	28.8	0	2	270	0.00	29.969 
19:25	38.9	38.9	38.9	66	28.5	0	2	270	0.00	29.969 
19:30	38.6	38.6	38.6	67	28.6	1	2	270	0.00	29.970 
19:35	38.3	38.3	38.3	68	28.7	0	1	270	0.00	29.970 
19:40	38.0	38.0	38.0	68	28.4	0	1	270	0.00	29.970 
19:45	37.8	37.8	37.8	69	28.6	0	1	270	0.00	29.973 
19:50	37.6	37.6	37.6	69	28.4	0	1	270	0.00	29.973 
19:55	37.3	37.3	37.3	69	28.1	0	1	270	0.00	29.973 
20:00	37.2	37.2	37.2	70	28.3	0	1	270	0.00	29.969 
20:05	37.0	37.0	37.0	70	28.1	0	1	270	0.00	29.969 
20:10	36.8	36.8	36.8	71	28.3	0	1	270	0.00	29.969 
20:15	36.5	36.5	36.5	71	28.0	0	0	---	0.00	29.969 
20:20	36.2	36.2	36.2	72	28.1	0	0	---	0.00	29.969 
20:25	36.0	36.0	36.0	72	27.9	0	0	---	0.00	29.969 
20:30	35.8	35.8	35.8	73	28.0	0	0	---	0.00	29.971 
20:35	35.5	35.5	35.5	73	27.7	0	0	---	0.00	29.971 
20:40	35.2	35.2	35.2	74	27.8	0	0	---	0.00	29.971 
20:45	34.9	34.9	34.9	75	27.8	0	0	---	0.00	29.972 
20:50	34.6	34.6	34.6	75	27.5	0	0	---	0.00	29.972 
20:55	34.4	34.4	34.4	76	27.6	0	0	---	0.00	29.972 
21:00	34.1	34.1	34.1	77	27.7	0	0	---	0.00	29.984 
21:05	34.0	34.0	34.0	77	27.6	0	1	270	0.00	29.984 
21:10	33.8	33.8	33.8	77	27.4	0	0	---	0.00	29.984 
21:15	33.7	33.7	33.7	78	27.6	0	0	---	0.00	29.990 
21:20	33.4	33.4	33.4	78	27.3	0	0	---	0.00	29.990 
21:25	33.1	33.1	33.1	79	27.3	0	0	---	0.00	29.990 
21:30	32.8	32.8	32.8	79	27.0	0	0	---	0.00	29.991 
21:35	32.5	32.5	32.5	80	27.0	0	0	---	0.00	29.991 
21:40	32.1	32.1	32.1	81	26.9	0	0	---	0.00	29.991 
21:45	31.8	31.8	31.8	82	26.9	0	0	---	0.00	29.992 
21:50	31.6	31.6	31.6	82	26.7	0	0	---	0.00	29.992 
21:55	31.3	31.3	31.3	83	26.7	0	0	---	0.00	29.992 
22:00	31.0	31.0	31.0	83	26.5	0	0	---	0.00	30.006 
22:05	30.7	30.7	30.7	84	26.4	0	0	---	0.00	30.006 
22:10	30.6	30.6	30.6	84	26.4	0	0	---	0.00	30.006 
22:15	30.3	30.3	30.3	84	26.1	0	0	---	0.00	30.004 
22:20	30.1	30.1	30.1	85	26.1	0	0	---	0.00	30.004 
22:25	29.8	29.8	29.8	85	25.9	0	0	---	0.00	30.004 
22:30	29.7	29.7	29.7	85	25.8	0	0	---	0.00	30.004 
22:35	29.5	29.5	29.5	86	25.8	0	0	---	0.00	30.004 
22:40	29.4	29.4	29.4	86	25.7	0	0	---	0.00	30.004 
22:45	29.3	29.3	29.3	86	25.6	0	0	---	0.00	30.012 
22:50	29.0	29.0	29.0	86	25.3	0	0	---	0.00	30.012 
22:55	28.8	28.8	28.8	87	25.4	0	0	---	0.00	30.012 
23:00	29.0	29.0	29.0	88	25.9	0	1	270	0.00	30.009 
23:05	28.8	28.8	28.8	88	25.7	0	0	---	0.00	30.009 
23:10	28.8	28.8	28.8	88	25.7	0	0	---	0.00	30.009 
23:15	28.7	28.7	28.7	88	25.6	0	0	---	0.00	30.010 
23:20	28.5	28.5	28.5	88	25.4	0	0	---	0.00	30.010 
23:25	28.4	28.4	28.4	88	25.3	0	0	---	0.00	30.010 
23:30	28.2	28.2	28.2	89	25.4	0	0	---	0.00	30.022 
23:35	28.2	28.2	28.2	89	25.4	0	0	---	0.00	30.022 
23:40	28.1	28.1	28.1	89	25.3	0	0	---	0.00	30.022 
23:45	28.1	28.1	28.1	89	25.3	0	0	---	0.00	30.017 
23:50	27.9	27.9	27.9	89	25.1	0	0	---	0.00	30.017 
23:55	27.9	27.9	27.9	89	25.1	0	0	---	0.00	30.017 

CoCoRaHS
IN-AL-39
A2 Web Hosting
Creative Commons License
GoDaddy
Look for:

loaded 2017-12-11 06:44:50 • last modified 2010-11-18 10:43:29
Privacy PolicyDisclaimer
• wx.awcolley.com is powered by PmWiki v.2002016 •
• all content (unless otherwise noted) © 2017 A W Colley